• Join FlightAware (Why Join?)
  • Login
  • US Flag 
03:14PM EST


 

Airport Tracker/Info


-or-


 

Live Flight TrackerFlight Track Log ✈ RPA3143 ✈ 13-Jul-2013 ✈ KDCA - KMCO

Flight Track Log - Related Links

Times and Time Zones

All times are in EDT time to prevent confusion due to time zone crossing. See the RPA3143 flight status page for this flight to view local times or setup timezone preferences in your user account.

Time Position Orientation Groundspeed Altitude Reporting Facility
EDT Latitude Longitude Course Direction KTS MPH feet Rate Location/Type
08:04AM 38.8833 -77.0667 201° Southwest 174 200 1,600  Level Potomac TRACON
08:05AM 38.9500 -77.1333 322° Northwest 257 296 4,000 2,524 Climbing Potomac TRACON
08:06AM 38.6319 -77.2848 218° Southwest  Level FlightAware Approximate
08:06AM 39.0000 -77.2000 314° West 290 334 6,900  Level Potomac TRACON
08:07AM 38.5525 -77.3642 218° Southwest  Level FlightAware Approximate
08:08AM 38.4795 -77.4526 225° Southwest  Level FlightAware Approximate
08:08AM 38.9097 -77.2936 219° Southwest 246 283 10,900  Level Washington Center
08:09AM 38.4059 -77.5387 201° Southwest  Level FlightAware Approximate
08:09AM 38.8319 -77.3397 205° Southwest 270 311 13,400  Level Washington Center
08:10AM 38.7619 -77.4100 218° Southwest 301 346 14,800 807 Climbing Washington Center
08:11AM 38.6922 -77.4800 218° Southwest 325 374 15,000 1,008 Climbing Washington Center
08:12AM 38.6244 -77.5475 218° Southwest 325 374 16,800 1,934 Climbing Washington Center
08:13AM 38.5586 -77.6147 219° Southwest 320 368 18,900 1,475 Climbing Washington Center
08:14AM 38.4864 -77.6869 218° Southwest 320 368 19,800 756 Climbing Washington Center
08:15AM 38.4017 -77.7694 217° Southwest 356 410 20,400 966 Climbing Washington Center
08:16AM 38.3167 -77.8569 219° Southwest 384 442 21,700 1,220 Climbing Washington Center
08:18AM 38.1358 -78.0336 218° Southwest 411 473 24,100 1,140 Climbing Washington Center
08:19AM 38.0403 -78.1256 217° Southwest 423 487 25,100 908 Climbing Washington Center
08:20AM 37.9611 -78.2097 220° Southwest 423 487 25,900 843 Climbing Washington Center
08:21AM 37.8675 -78.2986 217° Southwest 423 487 26,800 807 Climbing Washington Center
08:22AM 37.7694 -78.3897 216° Southwest 434 499 27,500 807 Climbing Washington Center
08:23AM 37.6714 -78.4831 217° Southwest 439 505 28,400 942 Climbing Washington Center
08:24AM 37.5644 -78.5839 217° Southwest 439 505 29,400 850 Climbing Washington Center
08:25AM 37.4683 -78.6742 217° Southwest 444 511 30,100 756 Climbing Washington Center
08:26AM 37.3700 -78.7617 215° Southwest 444 511 30,900 793 Climbing Washington Center
08:27AM 37.2739 -78.8517 217° Southwest 444 511 31,700 689 Climbing Washington Center
08:28AM 37.1861 -78.9342 217° Southwest 444 511 32,300 694 Climbing Washington Center
08:29AM 37.0875 -79.0208 215° Southwest 444 511 33,100 814 Climbing Washington Center
08:30AM 36.9931 -79.1103 217° Southwest 444 511 33,900 458 Climbing Washington Center
08:31AM 36.8986 -79.1994 217° Southwest 439 505 34,000 50 Climbing Washington Center
08:32AM 36.8042 -79.2883 217° Southwest 439 505 34,000  Level Washington Center
08:33AM 36.6992 -79.3819 216° Southwest 439 505 34,000  Level Washington Center
08:34AM 36.5264 -79.5408 216° Southwest 437 503 34,000  Level Atlanta Center
08:35AM 36.4394 -79.6156 215° Southwest 437 503 34,000  Level Atlanta Center
08:36AM 36.3447 -79.7031 217° Southwest 437 503 34,000  Level Atlanta Center
08:37AM 36.2536 -79.7881 217° Southwest 432 497 34,000  Level Atlanta Center
08:38AM 36.1586 -79.8700 215° Southwest 432 497 34,000  Level Atlanta Center
08:39AM 36.0594 -79.9600 216° Southwest 421 484 34,000  Level Atlanta Center
08:40AM 35.9611 -80.0161 205° Southwest 406 467 34,000  Level Atlanta Center
08:41AM 35.8625 -80.0672 203° Southwest 388 447 34,000  Level Atlanta Center
08:42AM 35.7600 -80.1158 201° Southwest 388 447 34,000  Level Atlanta Center
08:43AM 35.6592 -80.1667 202° Southwest 393 452 34,000  Level Atlanta Center
08:44AM 35.5711 -80.2142 204° Southwest 393 452 34,000  Level Atlanta Center
08:45AM 35.4725 -80.2647 203° Southwest 393 452 34,000  Level Atlanta Center
08:46AM 35.3717 -80.3150 202° Southwest 393 452 34,000  Level Atlanta Center
08:47AM 35.2628 -80.3708 203° Southwest 393 452 34,000  Level Atlanta Center
08:48AM 35.1581 -80.4236 202° Southwest 394 453 34,000  Level Atlanta Center
08:51AM 34.9222 -80.5381 202° Southwest 393 452 34,000  Level Jacksonville Center
08:52AM 34.8208 -80.5889 202° Southwest 393 452 34,000  Level Jacksonville Center
08:53AM 34.7258 -80.6394 204° Southwest 387 445 34,000  Level Jacksonville Center
08:54AM 34.6244 -80.6875 201° Southwest 393 452 34,000  Level Jacksonville Center
08:55AM 34.5272 -80.7328 201° Southwest 404 465 34,000  Level Jacksonville Center
08:56AM 34.4172 -80.7633 193° South 404 465 34,000  Level Jacksonville Center
08:57AM 34.3111 -80.7833 189° South 393 452 34,000  Level Jacksonville Center
08:58AM 34.2008 -80.8036 189° South 387 445 34,000  Level Jacksonville Center
08:59AM 34.0928 -80.8264 190° South 392 451 34,000  Level Jacksonville Center
09:00AM 33.9825 -80.8439 187° South 392 451 34,000  Level Jacksonville Center
09:01AM 33.8722 -80.8589 186° South 397 457 34,000  Level Jacksonville Center
09:02AM 33.7639 -80.8714 185° South 397 457 34,000  Level Jacksonville Center
09:03AM 33.6536 -80.8864 186° South 397 457 34,000  Level Jacksonville Center
09:04AM 33.5453 -80.9014 187° South 397 457 34,000  Level Jacksonville Center
09:05AM 33.4328 -80.9164 186° South 405 466 34,000 -400 Level Jacksonville Center
09:06AM 33.3225 -80.9311 186° South 405 466 33,200 -1,000 Descending Jacksonville Center
09:07AM 33.2119 -80.9461 186° South 405 466 32,000 -600 Descending Jacksonville Center
09:08AM 33.0975 -80.9586 185° South 410 472 32,000  Level Jacksonville Center
09:09AM 32.9850 -80.9733 186° South 410 472 32,000  Level Jacksonville Center
09:10AM 32.8725 -80.9856 185° South 410 472 32,000  Level Jacksonville Center
09:11AM 32.7600 -81.0003 186° South 410 472 32,000  Level Jacksonville Center
09:12AM 32.6453 -81.0150 186° South 403 464 32,000  Level Jacksonville Center
09:13AM 32.5347 -81.0272 185° South 409 471 32,000  Level Jacksonville Center
09:14AM 32.4203 -81.0419 186° South 404 465 32,000  Level Jacksonville Center
09:15AM 32.3119 -81.0564 186° South 410 472 32,000  Level Jacksonville Center
09:16AM 32.1953 -81.0733 187° South 426 490 32,000  Level Jacksonville Center
09:17AM 32.0764 -81.0856 185° South 421 484 32,000  Level Jacksonville Center
09:18AM 31.9658 -81.0975 185° South 421 484 32,000  Level Jacksonville Center
09:19AM 31.8617 -81.1094 186° South 421 484 32,000  Level Jacksonville Center
09:20AM 31.7367 -81.1264 187° South 421 484 32,000  Level Jacksonville Center
09:21AM 31.6242 -81.1383 185° South 421 484 32,000  Level Jacksonville Center
09:22AM 31.5200 -81.1525 187° South 421 484 32,000  Level Jacksonville Center
09:23AM 31.3947 -81.1669 186° South 422 486 32,000  Level Jacksonville Center
09:24AM 31.2758 -81.1764 184° South 422 486 32,000  Level Jacksonville Center
09:25AM 31.1589 -81.1714 178° South 422 486 32,000  Level Jacksonville Center
09:26AM 31.0419 -81.1661 178° South 422 486 32,000  Level Jacksonville Center
09:27AM 30.9292 -81.1608 178° South 417 480 32,000  Level Jacksonville Center
09:28AM 30.8100 -81.1608 180° South 422 486 32,000  Level Jacksonville Center
09:29AM 30.6911 -81.1556 178° South 422 486 32,000  Level Jacksonville Center
09:30AM 30.5719 -81.1531 179° South 422 486 32,000  Level Jacksonville Center
09:31AM 30.4572 -81.1478 178° South 422 486 32,000  Level Jacksonville Center
09:32AM 30.3381 -81.1453 179° South 422 486 32,000  Level Jacksonville Center
09:33AM 30.2211 -81.1400 178° South 422 486 32,000  Level Jacksonville Center
09:34AM 30.1019 -81.1375 179° South 422 486 32,000 -750 Level Jacksonville Center
09:35AM 29.9850 -81.1347 179° South 422 486 30,500 -1,850 Descending Jacksonville Center
09:36AM 29.8639 -81.1322 179° South 422 486 28,300 -9,250 Descending Jacksonville Center
09:37AM 29.7617 -81.1317 180° South 422 486 12,000 -2,000 Descending Jacksonville Center
09:38AM 29.6467 -81.1242 177° South 416 479 24,300 5,150 Climbing Jacksonville Center
09:39AM 29.5425 -81.1236 180° South 397 457 22,300 -2,100 Descending Jacksonville Center
09:40AM 29.4358 -81.1161 176° South 352 405 20,100 -2,000 Descending Jacksonville Center
09:41AM 29.3419 -81.1153 180° South 341 392 18,300 -1,800 Descending Jacksonville Center
09:42AM 29.2542 -81.1100 177° South 327 376 16,500 -1,700 Descending Jacksonville Center
09:43AM 29.1664 -81.1019 175° South 309 356 14,900 -1,600 Descending Jacksonville Center
09:44AM 29.0847 -81.0964 177° South 307 353 13,300 -1,500 Descending Jacksonville Center
09:45AM 29.0033 -81.0883 175° South 302 348 11,900 -1,300 Descending Jacksonville Center
09:46AM 28.9219 -81.0825 176° South 291 335 10,700 -1,500 Descending Jacksonville Center
09:47AM 28.8467 -81.0769 176° South 291 335 8,900 -1,400 Descending Jacksonville Center
09:48AM 28.7886 -81.1133 209° Southwest 256 295 7,900 -1,150 Descending Jacksonville Center
09:49AM 28.7478 -81.1711 231° Southwest 233 268 6,600 -1,850 Descending Jacksonville Center
09:50AM 28.6961 -81.2097 213° Southwest 233 268 4,200 -1,850 Descending Jacksonville Center
09:51AM 28.6486 -81.2531 219° Southwest 228 262 2,900 -750 Descending Jacksonville Center
09:52AM 28.6011 -81.2964 219° Southwest 228 262 2,700 -200 Descending Jacksonville Center